sensor_id;sensor_type;location;lat;lon;timestamp;pressure;altitude;pressure_sealevel;temperature;humidity
44131;BME280;29792;48.726;9.248;2022-12-07T00:01:44;96942.34;;;3.87;100.00
44131;BME280;29792;48.726;9.248;2022-12-07T00:04:12;96942.34;;;3.87;100.00
44131;BME280;29792;48.726;9.248;2022-12-07T00:06:46;96936.41;;;3.88;100.00
44131;BME280;29792;48.726;9.248;2022-12-07T00:09:14;96944.00;;;3.88;100.00
44131;BME280;29792;48.726;9.248;2022-12-07T00:11:40;96944.72;;;3.90;100.00
44131;BME280;29792;48.726;9.248;2022-12-07T00:14:09;96934.56;;;3.90;100.00
44131;BME280;29792;48.726;9.248;2022-12-07T00:16:35;96933.59;;;3.93;100.00
44131;BME280;29792;48.726;9.248;2022-12-07T00:19:00;96941.19;;;3.93;100.00
44131;BME280;29792;48.726;9.248;2022-12-07T00:21:31;96942.09;;;3.92;100.00
44131;BME280;29792;48.726;9.248;2022-12-07T00:23:57;96932.78;;;3.92;100.00
44131;BME280;29792;48.726;9.248;2022-12-07T00:26:31;96945.44;;;3.92;100.00
44131;BME280;29792;48.726;9.248;2022-12-07T00:28:59;96925.91;;;3.94;100.00
44131;BME280;29792;48.726;9.248;2022-12-07T00:31:29;96929.28;;;3.95;100.00
44131;BME280;29792;48.726;9.248;2022-12-07T00:33:54;96935.06;;;3.97;100.00
44131;BME280;29792;48.726;9.248;2022-12-07T00:36:22;96933.25;;;3.99;100.00
44131;BME280;29792;48.726;9.248;2022-12-07T00:38:47;96928.09;;;4.00;100.00
44131;BME280;29792;48.726;9.248;2022-12-07T00:41:18;96932.28;;;4.01;100.00
44131;BME280;29792;48.726;9.248;2022-12-07T00:43:45;96926.38;;;4.01;100.00
44131;BME280;29792;48.726;9.248;2022-12-07T00:46:11;96931.47;;;4.01;100.00
44131;BME280;29792;48.726;9.248;2022-12-07T00:48:37;96928.94;;;4.01;100.00
44131;BME280;29792;48.726;9.248;2022-12-07T00:51:03;96925.56;;;4.00;100.00
44131;BME280;29792;48.726;9.248;2022-12-07T00:53:29;96926.31;;;4.02;100.00
44131;BME280;29792;48.726;9.248;2022-12-07T00:55:55;96932.28;;;4.01;100.00
44131;BME280;29792;48.726;9.248;2022-12-07T00:58:21;96927.22;;;4.01;100.00
44131;BME280;29792;48.726;9.248;2022-12-07T01:00:47;96926.31;;;4.02;100.00
44131;BME280;29792;48.726;9.248;2022-12-07T01:03:13;96928.84;;;4.02;100.00
44131;BME280;29792;48.726;9.248;2022-12-07T01:05:39;96933.84;;;4.04;100.00
44131;BME280;29792;48.726;9.248;2022-12-07T01:08:05;96927.88;;;4.05;100.00
44131;BME280;29792;48.726;9.248;2022-12-07T01:10:31;96927.22;;;4.01;100.00
44131;BME280;29792;48.726;9.248;2022-12-07T01:12:57;96925.56;;;4.00;100.00
44131;BME280;29792;48.726;9.248;2022-12-07T01:15:23;96923.13;;;3.99;100.00
44131;BME280;29792;48.726;9.248;2022-12-07T01:17:49;96923.13;;;3.99;100.00
44131;BME280;29792;48.726;9.248;2022-12-07T01:20:14;96923.31;;;3.96;100.00
44131;BME280;29792;48.726;9.248;2022-12-07T01:22:41;96923.47;;;3.93;100.00
44131;BME280;29792;48.726;9.248;2022-12-07T01:25:09;96928.59;;;3.91;100.00
44131;BME280;29792;48.726;9.248;2022-12-07T01:27:34;96931.16;;;3.91;100.00
44131;BME280;29792;48.726;9.248;2022-12-07T01:30:00;96938.81;;;3.90;100.00
44131;BME280;29792;48.726;9.248;2022-12-07T01:32:26;96941.47;;;3.88;100.00
44131;BME280;29792;48.726;9.248;2022-12-07T01:34:51;96939.91;;;3.86;100.00
44131;BME280;29792;48.726;9.248;2022-12-07T01:37:17;96944.97;;;3.86;100.00
44131;BME280;29792;48.726;9.248;2022-12-07T01:39:42;96944.22;;;3.83;100.00
44131;BME280;29792;48.726;9.248;2022-12-07T01:42:10;96950.19;;;3.82;100.00
44131;BME280;29792;48.726;9.248;2022-12-07T01:47:53;96953.88;;;3.77;100.00
44131;BME280;29792;48.726;9.248;2022-12-07T01:50:21;96949.78;;;3.74;100.00
44131;BME280;29792;48.726;9.248;2022-12-07T01:52:50;96954.97;;;3.73;100.00
44131;BME280;29792;48.726;9.248;2022-12-07T01:55:17;96949.97;;;3.71;100.00
44131;BME280;29792;48.726;9.248;2022-12-07T01:57:47;96947.53;;;3.70;100.00
44131;BME280;29792;48.726;9.248;2022-12-07T02:00:13;96952.59;;;3.70;100.00
44131;BME280;29792;48.726;9.248;2022-12-07T02:02:47;96950.13;;;3.68;100.00
44131;BME280;29792;48.726;9.248;2022-12-07T02:05:13;96943.44;;;3.67;100.00
44131;BME280;29792;48.726;9.248;2022-12-07T02:07:39;96947.66;;;3.67;100.00
44131;BME280;29792;48.726;9.248;2022-12-07T02:10:22;96952.09;;;3.63;100.00
44131;BME280;29792;48.726;9.248;2022-12-07T02:13:04;96955.53;;;3.62;100.00
44131;BME280;29792;48.726;9.248;2022-12-07T02:15:45;96948.75;;;3.63;100.00
44131;BME280;29792;48.726;9.248;2022-12-07T02:18:32;96953.88;;;3.61;100.00
44131;BME280;29792;48.726;9.248;2022-12-07T02:31:48;96936.97;;;3.62;100.00
44131;BME280;29792;48.726;9.248;2022-12-07T02:34:29;96933.56;;;3.63;100.00
44131;BME280;29792;48.726;9.248;2022-12-07T02:37:02;96931.03;;;3.63;100.00
44131;BME280;29792;48.726;9.248;2022-12-07T02:39:39;96933.47;;;3.64;100.00
44131;BME280;29792;48.726;9.248;2022-12-07T02:42:12;96934.28;;;3.65;100.00
44131;BME280;29792;48.726;9.248;2022-12-07T02:44:39;96937.72;;;3.64;100.00
44131;BME280;29792;48.726;9.248;2022-12-07T02:47:07;96929.38;;;3.62;100.00
44131;BME280;29792;48.726;9.248;2022-12-07T02:49:36;96931.91;;;3.62;100.00
44131;BME280;29792;48.726;9.248;2022-12-07T02:52:03;96926.84;;;3.62;100.00
44131;BME280;29792;48.726;9.248;2022-12-07T02:54:28;96930.28;;;3.61;100.00
44131;BME280;29792;48.726;9.248;2022-12-07T02:57:04;96931.34;;;3.57;100.00
44131;BME280;29792;48.726;9.248;2022-12-07T03:00:01;96930.69;;;3.53;100.00
44131;BME280;29792;48.726;9.248;2022-12-07T03:02:53;96924.13;;;3.49;100.00
44131;BME280;29792;48.726;9.248;2022-12-07T03:05:38;96920.16;;;3.45;100.00
44131;BME280;29792;48.726;9.248;2022-12-07T03:08:21;96914.34;;;3.43;100.00
44131;BME280;29792;48.726;9.248;2022-12-07T03:10:56;96917.78;;;3.42;100.00
44131;BME280;29792;48.726;9.248;2022-12-07T03:13:39;96916.13;;;3.41;100.00
44131;BME280;29792;48.726;9.248;2022-12-07T03:16:17;96912.72;;;3.42;100.00
44131;BME280;29792;48.726;9.248;2022-12-07T03:18:53;96912.00;;;3.40;100.00
44131;BME280;29792;48.726;9.248;2022-12-07T03:21:27;96906.19;;;3.38;100.00
44131;BME280;29792;48.726;9.248;2022-12-07T03:23:57;96913.94;;;3.35;100.00
44131;BME280;29792;48.726;9.248;2022-12-07T03:26:30;96909.88;;;3.32;100.00
44131;BME280;29792;48.726;9.248;2022-12-07T03:29:01;96909.22;;;3.29;100.00
44131;BME280;29792;48.726;9.248;2022-12-07T03:31:38;96909.34;;;3.26;100.00
44131;BME280;29792;48.726;9.248;2022-12-07T03:36:41;96902.09;;;3.20;100.00
44131;BME280;29792;48.726;9.248;2022-12-07T03:42:31;96899.63;;;3.18;100.00
44131;BME280;29792;48.726;9.248;2022-12-07T03:44:58;96898.81;;;3.18;100.00
44131;BME280;29792;48.726;9.248;2022-12-07T03:47:35;96897.19;;;3.17;100.00
44131;BME280;29792;48.726;9.248;2022-12-07T03:50:14;96898.19;;;3.14;100.00
44131;BME280;29792;48.726;9.248;2022-12-07T03:52:55;96897.44;;;3.12;100.00
44131;BME280;29792;48.726;9.248;2022-12-07T03:55:29;96909.41;;;3.08;100.00
44131;BME280;29792;48.726;9.248;2022-12-07T03:57:59;96900.94;;;3.10;100.00
44131;BME280;29792;48.726;9.248;2022-12-07T04:00:25;96898.50;;;3.08;100.00
44131;BME280;29792;48.726;9.248;2022-12-07T04:02:52;96895.06;;;3.09;100.00
44131;BME280;29792;48.726;9.248;2022-12-07T04:05:18;96897.69;;;3.08;100.00
44131;BME280;29792;48.726;9.248;2022-12-07T04:07:43;96904.53;;;3.05;100.00
44131;BME280;29792;48.726;9.248;2022-12-07T04:10:09;96895.31;;;3.04;100.00
44131;BME280;29792;48.726;9.248;2022-12-07T04:12:34;96889.50;;;3.02;100.00
44131;BME280;29792;48.726;9.248;2022-12-07T04:15:00;96890.41;;;3.01;100.00
44131;BME280;29792;48.726;9.248;2022-12-07T04:17:25;96885.44;;;3.00;100.00
44131;BME280;29792;48.726;9.248;2022-12-07T04:19:50;96883.81;;;2.99;100.00
44131;BME280;29792;48.726;9.248;2022-12-07T04:22:16;96882.09;;;2.99;100.00
44131;BME280;29792;48.726;9.248;2022-12-07T04:24:41;96884.69;;;2.98;100.00
44131;BME280;29792;48.726;9.248;2022-12-07T04:27:06;96880.53;;;2.97;100.00
44131;BME280;29792;48.726;9.248;2022-12-07T04:29:32;96888.94;;;2.97;100.00
44131;BME280;29792;48.726;9.248;2022-12-07T04:31:57;96886.47;;;2.96;100.00
44131;BME280;29792;48.726;9.248;2022-12-07T04:34:22;96889.00;;;2.96;100.00
44131;BME280;29792;48.726;9.248;2022-12-07T04:36:48;96884.78;;;2.96;100.00
44131;BME280;29792;48.726;9.248;2022-12-07T04:39:27;96879.72;;;2.96;100.00
44131;BME280;29792;48.726;9.248;2022-12-07T04:41:53;96867.06;;;2.96;100.00
44131;BME280;29792;48.726;9.248;2022-12-07T04:44:19;96864.59;;;2.95;100.00
44131;BME280;29792;48.726;9.248;2022-12-07T04:46:45;96856.38;;;2.91;100.00
44131;BME280;29792;48.726;9.248;2022-12-07T04:49:12;96854.00;;;2.88;100.00
44131;BME280;29792;48.726;9.248;2022-12-07T04:51:37;96863.38;;;2.86;100.00
44131;BME280;29792;48.726;9.248;2022-12-07T04:54:03;96863.38;;;2.86;100.00
44131;BME280;29792;48.726;9.248;2022-12-07T04:56:28;96865.97;;;2.85;100.00
44131;BME280;29792;48.726;9.248;2022-12-07T04:58:54;96877.81;;;2.84;100.00
44131;BME280;29792;48.726;9.248;2022-12-07T05:01:20;96870.31;;;2.83;100.00
44131;BME280;29792;48.726;9.248;2022-12-07T05:03:46;96864.38;;;2.84;100.00
44131;BME280;29792;48.726;9.248;2022-12-07T05:06:12;96863.56;;;2.83;100.00
44131;BME280;29792;48.726;9.248;2022-12-07T05:08:37;96853.44;;;2.83;100.00
44131;BME280;29792;48.726;9.248;2022-12-07T05:11:04;96856.03;;;2.82;100.00
44131;BME280;29792;48.726;9.248;2022-12-07T05:13:31;96852.69;;;2.81;100.00
44131;BME280;29792;48.726;9.248;2022-12-07T05:15:56;96853.56;;;2.80;100.00
44131;BME280;29792;48.726;9.248;2022-12-07T05:18:21;96851.88;;;2.81;100.00
44131;BME280;29792;48.726;9.248;2022-12-07T05:20:47;96861.09;;;2.82;100.00
44131;BME280;29792;48.726;9.248;2022-12-07T05:23:12;96857.66;;;2.83;100.00
44131;BME280;29792;48.726;9.248;2022-12-07T05:25:38;96855.16;;;2.83;100.00
44131;BME280;29792;48.726;9.248;2022-12-07T05:28:04;96851.13;;;2.79;100.00
44131;BME280;29792;48.726;9.248;2022-12-07T05:30:29;96853.91;;;2.74;100.00
44131;BME280;29792;48.726;9.248;2022-12-07T05:32:55;96852.41;;;2.70;100.00
44131;BME280;29792;48.726;9.248;2022-12-07T05:35:20;96853.41;;;2.67;100.00
44131;BME280;29792;48.726;9.248;2022-12-07T05:37:45;96865.31;;;2.65;100.00
44131;BME280;29792;48.726;9.248;2022-12-07T05:40:12;96864.41;;;2.66;100.00
44131;BME280;29792;48.726;9.248;2022-12-07T05:42:38;96871.09;;;2.67;100.00
44131;BME280;29792;48.726;9.248;2022-12-07T05:45:05;96866.84;;;2.68;100.00
44131;BME280;29792;48.726;9.248;2022-12-07T05:47:30;96862.59;;;2.68;100.00
44131;BME280;29792;48.726;9.248;2022-12-07T05:49:55;96871.00;;;2.69;100.00
44131;BME280;29792;48.726;9.248;2022-12-07T05:52:21;96870.28;;;2.67;100.00
44131;BME280;29792;48.726;9.248;2022-12-07T05:54:46;96884.78;;;2.63;100.00
44131;BME280;29792;48.726;9.248;2022-12-07T05:57:12;96884.28;;;2.57;100.00
44131;BME280;29792;48.726;9.248;2022-12-07T05:59:37;96885.41;;;2.51;100.00
44131;BME280;29792;48.726;9.248;2022-12-07T06:02:05;96887.34;;;2.46;100.00
44131;BME280;29792;48.726;9.248;2022-12-07T06:04:36;96881.78;;;2.40;100.00
44131;BME280;29792;48.726;9.248;2022-12-07T06:07:02;96889.66;;;2.34;100.00
44131;BME280;29792;48.726;9.248;2022-12-07T06:09:28;96884.75;;;2.30;100.00
44131;BME280;29792;48.726;9.248;2022-12-07T06:11:54;96878.88;;;2.30;100.00
44131;BME280;29792;48.726;9.248;2022-12-07T06:14:39;96883.88;;;2.32;100.00
44131;BME280;29792;48.726;9.248;2022-12-07T06:17:05;96882.97;;;2.33;100.00
44131;BME280;29792;48.726;9.248;2022-12-07T06:19:30;96884.63;;;2.34;100.00
44131;BME280;29792;48.726;9.248;2022-12-07T06:21:56;96883.72;;;2.35;100.00
44131;BME280;29792;48.726;9.248;2022-12-07T06:24:21;96889.50;;;2.37;100.00
44131;BME280;29792;48.726;9.248;2022-12-07T06:26:46;96881.91;;;2.37;100.00
44131;BME280;29792;48.726;9.248;2022-12-07T06:29:12;96881.03;;;2.38;100.00
44131;BME280;29792;48.726;9.248;2022-12-07T06:31:38;96881.03;;;2.38;100.00
44131;BME280;29792;48.726;9.248;2022-12-07T06:34:10;96887.78;;;2.37;100.00
44131;BME280;29792;48.726;9.248;2022-12-07T06:36:36;96889.34;;;2.40;100.00
44131;BME280;29792;48.726;9.248;2022-12-07T06:39:02;96891.00;;;2.41;100.00
44131;BME280;29792;48.726;9.248;2022-12-07T06:41:28;96894.28;;;2.43;100.00
44131;BME280;29792;48.726;9.248;2022-12-07T06:43:53;96900.94;;;2.44;100.00
44131;BME280;29792;48.726;9.248;2022-12-07T06:46:18;96898.25;;;2.47;100.00
44131;BME280;29792;48.726;9.248;2022-12-07T06:48:44;96899.91;;;2.48;100.00
44131;BME280;29792;48.726;9.248;2022-12-07T06:51:09;96897.31;;;2.49;100.00
44131;BME280;29792;48.726;9.248;2022-12-07T06:53:35;96894.03;;;2.47;100.00
44131;BME280;29792;48.726;9.248;2022-12-07T06:56:01;96889.94;;;2.45;100.00
44131;BME280;29792;48.726;9.248;2022-12-07T06:58:27;96888.28;;;2.44;100.00
44131;BME280;29792;48.726;9.248;2022-12-07T07:00:55;96889.13;;;2.44;100.00
44131;BME280;29792;48.726;9.248;2022-12-07T07:03:21;96899.41;;;2.41;100.00
44131;BME280;29792;48.726;9.248;2022-12-07T07:05:46;96911.22;;;2.41;100.00
44131;BME280;29792;48.726;9.248;2022-12-07T07:08:13;96916.28;;;2.41;100.00
44131;BME280;29792;48.726;9.248;2022-12-07T07:10:38;96917.03;;;2.43;100.00
44131;BME280;29792;48.726;9.248;2022-12-07T07:13:04;96905.09;;;2.45;100.00
44131;BME280;29792;48.726;9.248;2022-12-07T07:15:31;96905.78;;;2.48;100.00
44131;BME280;29792;48.726;9.248;2022-12-07T07:17:57;96910.75;;;2.50;100.00
44131;BME280;29792;48.726;9.248;2022-12-07T07:20:22;96914.09;;;2.50;100.00
44131;BME280;29792;48.726;9.248;2022-12-07T07:22:48;96919.06;;;2.52;100.00
44131;BME280;29792;48.726;9.248;2022-12-07T07:25:14;96914.75;;;2.54;100.00
44131;BME280;29792;48.726;9.248;2022-12-07T07:27:40;96919.69;;;2.57;100.00
44131;BME280;29792;48.726;9.248;2022-12-07T07:30:06;96916.19;;;2.59;100.00
44131;BME280;29792;48.726;9.248;2022-12-07T07:32:32;96923.66;;;2.61;100.00
44131;BME280;29792;48.726;9.248;2022-12-07T07:34:58;96921.97;;;2.61;100.00
44131;BME280;29792;48.726;9.248;2022-12-07T07:37:23;96925.25;;;2.63;100.00
44131;BME280;29792;48.726;9.248;2022-12-07T07:39:48;96931.03;;;2.65;100.00
44131;BME280;29792;48.726;9.248;2022-12-07T07:42:14;96923.53;;;2.64;100.00
44131;BME280;29792;48.726;9.248;2022-12-07T07:44:39;96926.06;;;2.64;100.00
44131;BME280;29792;48.726;9.248;2022-12-07T07:47:05;96923.53;;;2.64;100.00
44131;BME280;29792;48.726;9.248;2022-12-07T07:49:30;96931.03;;;2.65;100.00
44131;BME280;29792;48.726;9.248;2022-12-07T07:51:55;96931.78;;;2.67;100.00
44131;BME280;29792;48.726;9.248;2022-12-07T07:54:21;96931.69;;;2.69;100.00
44131;BME280;29792;48.726;9.248;2022-12-07T07:56:46;96927.44;;;2.69;100.00
44131;BME280;29792;48.726;9.248;2022-12-07T07:59:11;96935.78;;;2.72;100.00
44131;BME280;29792;48.726;9.248;2022-12-07T08:01:37;96933.00;;;2.76;100.00
44131;BME280;29792;48.726;9.248;2022-12-07T08:04:02;96935.47;;;2.78;100.00
44131;BME280;29792;48.726;9.248;2022-12-07T08:06:27;96930.28;;;2.81;100.00
44131;BME280;29792;48.726;9.248;2022-12-07T08:08:52;96926.84;;;2.82;100.00
44131;BME280;29792;48.726;9.248;2022-12-07T08:11:18;96930.84;;;2.86;100.00
44131;BME280;29792;48.726;9.248;2022-12-07T08:13:46;96926.53;;;2.88;100.00
44131;BME280;29792;48.726;9.248;2022-12-07T08:16:12;96932.97;;;2.93;100.00
44131;BME280;29792;48.726;9.248;2022-12-07T08:18:39;96926.88;;;2.97;100.00
44131;BME280;29792;48.726;9.248;2022-12-07T08:21:06;96935.22;;;2.99;100.00
44131;BME280;29792;48.726;9.248;2022-12-07T08:23:32;96931.78;;;3.00;100.00
44131;BME280;29792;48.726;9.248;2022-12-07T08:26:03;96934.22;;;3.02;100.00
44131;BME280;29792;48.726;9.248;2022-12-07T08:28:29;96941.75;;;3.03;100.00
44131;BME280;29792;48.726;9.248;2022-12-07T08:31:02;96934.16;;;3.03;100.00
44131;BME280;29792;48.726;9.248;2022-12-07T08:33:27;96934.91;;;3.05;100.00
44131;BME280;29792;48.726;9.248;2022-12-07T08:35:53;96943.22;;;3.08;100.00
44131;BME280;29792;48.726;9.248;2022-12-07T08:38:18;96939.00;;;3.08;100.00
44131;BME280;29792;48.726;9.248;2022-12-07T08:40:44;96946.34;;;3.13;100.00
44131;BME280;29792;48.726;9.248;2022-12-07T08:43:09;96948.53;;;3.19;100.00
44131;BME280;29792;48.726;9.248;2022-12-07T08:45:34;96940.72;;;3.23;100.00
44131;BME280;29792;48.726;9.248;2022-12-07T08:48:12;96948.97;;;3.27;100.00
44131;BME280;29792;48.726;9.248;2022-12-07T08:50:38;96942.13;;;3.29;100.00
44131;BME280;29792;48.726;9.248;2022-12-07T08:53:05;96944.56;;;3.30;100.00
44131;BME280;29792;48.726;9.248;2022-12-07T08:55:31;96941.78;;;3.35;100.00
44131;BME280;29792;48.726;9.248;2022-12-07T08:57:58;96948.34;;;3.39;100.00
44131;BME280;29792;48.726;9.248;2022-12-07T09:00:24;96946.44;;;3.42;100.00
44131;BME280;29792;48.726;9.248;2022-12-07T09:02:49;96943.69;;;3.47;100.00
44131;BME280;29792;48.726;9.248;2022-12-07T09:05:15;96945.13;;;3.51;100.00
44131;BME280;29792;48.726;9.248;2022-12-07T09:07:42;96944.81;;;3.57;100.00
44131;BME280;29792;48.726;9.248;2022-12-07T09:10:08;96942.88;;;3.62;100.00
44131;BME280;29792;48.726;9.248;2022-12-07T09:12:34;96942.53;;;3.68;100.00
44131;BME280;29792;48.726;9.248;2022-12-07T09:14:59;96940.31;;;3.78;100.00
44131;BME280;29792;48.726;9.248;2022-12-07T09:17:26;96944.31;;;3.82;100.00
44131;BME280;29792;48.726;9.248;2022-12-07T09:19:51;96938.19;;;3.86;100.00
44131;BME280;29792;48.726;9.248;2022-12-07T09:22:17;96937.63;;;3.97;100.00
44131;BME280;29792;48.726;9.248;2022-12-07T09:24:42;96939.63;;;4.06;100.00
44131;BME280;29792;48.726;9.248;2022-12-07T09:27:09;96943.72;;;4.08;100.00
44131;BME280;29792;48.726;9.248;2022-12-07T09:29:34;96943.72;;;4.08;100.00
44131;BME280;29792;48.726;9.248;2022-12-07T09:32:00;96944.53;;;4.09;100.00
44131;BME280;29792;48.726;9.248;2022-12-07T09:34:25;96940.19;;;4.11;100.00
44131;BME280;29792;48.726;9.248;2022-12-07T09:36:51;96935.03;;;4.12;100.00
44131;BME280;29792;48.726;9.248;2022-12-07T09:39:17;96945.00;;;4.15;100.00
44131;BME280;29792;48.726;9.248;2022-12-07T09:41:43;96940.41;;;4.22;100.00
44131;BME280;29792;48.726;9.248;2022-12-07T09:44:12;96940.22;;;4.25;100.00
44131;BME280;29792;48.726;9.248;2022-12-07T09:46:40;96935.00;;;4.28;100.00
44131;BME280;29792;48.726;9.248;2022-12-07T09:49:16;96941.34;;;4.35;100.00
44131;BME280;29792;48.726;9.248;2022-12-07T09:51:43;96929.97;;;4.42;100.00
44131;BME280;29792;48.726;9.248;2022-12-07T09:54:12;96930.25;;;4.52;100.00
44131;BME280;29792;48.726;9.248;2022-12-07T09:56:38;96918.84;;;4.59;100.00
44131;BME280;29792;48.726;9.248;2022-12-07T09:59:04;96917.69;;;4.65;100.00
44131;BME280;29792;48.726;9.248;2022-12-07T10:01:33;96913.78;;;4.73;99.74
44131;BME280;29792;48.726;9.248;2022-12-07T10:04:20;96916.53;;;4.84;99.32
44131;BME280;29792;48.726;9.248;2022-12-07T10:06:46;96917.44;;;4.97;99.29
44131;BME280;29792;48.726;9.248;2022-12-07T10:09:17;96912.09;;;5.02;97.57
44131;BME280;29792;48.726;9.248;2022-12-07T10:12:04;96906.81;;;5.05;96.66
44131;BME280;29792;48.726;9.248;2022-12-07T10:14:32;96905.75;;;5.09;96.39
44131;BME280;29792;48.726;9.248;2022-12-07T10:16:58;96900.38;;;5.14;96.08
44131;BME280;29792;48.726;9.248;2022-12-07T10:19:31;96903.56;;;5.17;97.17
44131;BME280;29792;48.726;9.248;2022-12-07T10:22:14;96895.13;;;5.17;94.93
44131;BME280;29792;48.726;9.248;2022-12-07T10:24:40;96899.38;;;5.16;94.30
44131;BME280;29792;48.726;9.248;2022-12-07T10:27:22;96891.69;;;5.18;94.21
44131;BME280;29792;48.726;9.248;2022-12-07T10:29:51;96889.75;;;5.21;94.81
44131;BME280;29792;48.726;9.248;2022-12-07T10:34:42;96888.38;;;5.30;94.33
44131;BME280;29792;48.726;9.248;2022-12-07T10:39:46;96895.25;;;5.42;94.86
44131;BME280;29792;48.726;9.248;2022-12-07T10:42:17;96888.72;;;5.38;92.80
44131;BME280;29792;48.726;9.248;2022-12-07T10:44:43;96892.25;;;5.35;92.40
44131;BME280;29792;48.726;9.248;2022-12-07T10:49:50;96883.31;;;5.30;92.25
44131;BME280;29792;48.726;9.248;2022-12-07T10:52:42;96884.03;;;5.32;92.15
44131;BME280;29792;48.726;9.248;2022-12-07T10:55:26;96880.50;;;5.34;92.48
44131;BME280;29792;48.726;9.248;2022-12-07T11:03:44;96870.59;;;5.30;92.81
44131;BME280;29792;48.726;9.248;2022-12-07T11:12:34;96863.72;;;5.32;92.37
44131;BME280;29792;48.726;9.248;2022-12-07T11:17:44;96859.44;;;5.32;92.46
44131;BME280;29792;48.726;9.248;2022-12-07T11:23:26;96849.09;;;5.35;92.66
44131;BME280;29792;48.726;9.248;2022-12-07T11:26:10;96850.72;;;5.36;92.67
44131;BME280;29792;48.726;9.248;2022-12-07T11:37:17;96843.09;;;5.51;92.15
44131;BME280;29792;48.726;9.248;2022-12-07T11:39:50;96834.53;;;5.52;91.21
44131;BME280;29792;48.726;9.248;2022-12-07T11:42:21;96828.53;;;5.53;91.42
44131;BME280;29792;48.726;9.248;2022-12-07T11:47:32;96819.19;;;5.53;90.38
44131;BME280;29792;48.726;9.248;2022-12-07T11:52:32;96824.19;;;5.55;91.17
44131;BME280;29792;48.726;9.248;2022-12-07T11:55:02;96823.19;;;5.57;90.89
44131;BME280;29792;48.726;9.248;2022-12-07T11:57:42;96812.13;;;5.58;90.28
44131;BME280;29792;48.726;9.248;2022-12-07T12:00:15;96807.72;;;5.60;90.04
44131;BME280;29792;48.726;9.248;2022-12-07T12:03:02;96813.75;;;5.59;91.24
44131;BME280;29792;48.726;9.248;2022-12-07T12:05:30;96805.31;;;5.59;90.36
44131;BME280;29792;48.726;9.248;2022-12-07T12:08:14;96802.94;;;5.56;90.18
44131;BME280;29792;48.726;9.248;2022-12-07T12:13:40;96809.94;;;5.52;90.73
44131;BME280;29792;48.726;9.248;2022-12-07T12:16:53;96806.78;;;5.49;90.77
44131;BME280;29792;48.726;9.248;2022-12-07T12:19:42;96806.38;;;5.42;90.00
44131;BME280;29792;48.726;9.248;2022-12-07T12:22:17;96804.81;;;5.40;90.56
44131;BME280;29792;48.726;9.248;2022-12-07T12:24:46;96803.00;;;5.42;91.55
44131;BME280;29792;48.726;9.248;2022-12-07T12:27:28;96796.91;;;5.44;92.02
44131;BME280;29792;48.726;9.248;2022-12-07T12:29:59;96797.53;;;5.48;92.45
44131;BME280;29792;48.726;9.248;2022-12-07T12:32:39;96800.00;;;5.49;92.16
44131;BME280;29792;48.726;9.248;2022-12-07T12:37:48;96795.72;;;5.50;91.39
44131;BME280;29792;48.726;9.248;2022-12-07T12:42:52;96788.19;;;5.48;92.12
44131;BME280;29792;48.726;9.248;2022-12-07T12:45:24;96799.16;;;5.49;92.41
44131;BME280;29792;48.726;9.248;2022-12-07T12:47:59;96789.91;;;5.48;92.75
44131;BME280;29792;48.726;9.248;2022-12-07T12:50:37;96788.47;;;5.44;92.13
44131;BME280;29792;48.726;9.248;2022-12-07T12:53:24;96786.97;;;5.41;93.46
44131;BME280;29792;48.726;9.248;2022-12-07T12:56:26;96793.13;;;5.37;93.19
44131;BME280;29792;48.726;9.248;2022-12-07T13:01:50;96780.00;;;5.30;94.13
44131;BME280;29792;48.726;9.248;2022-12-07T13:04:38;96772.47;;;5.29;94.55
44131;BME280;29792;48.726;9.248;2022-12-07T13:07:10;96775.84;;;5.29;95.23
44131;BME280;29792;48.726;9.248;2022-12-07T13:09:36;96768.22;;;5.29;95.27
44131;BME280;29792;48.726;9.248;2022-12-07T13:12:13;96771.06;;;5.25;95.00
44131;BME280;29792;48.726;9.248;2022-12-07T13:14:43;96771.25;;;5.22;95.14
44131;BME280;29792;48.726;9.248;2022-12-07T13:25:29;96763.38;;;5.12;97.30
44131;BME280;29792;48.726;9.248;2022-12-07T13:28:16;96753.13;;;5.14;97.11
44131;BME280;29792;48.726;9.248;2022-12-07T13:30:47;96755.66;;;5.14;97.16
44131;BME280;29792;48.726;9.248;2022-12-07T13:33:14;96759.13;;;5.13;96.75
44131;BME280;29792;48.726;9.248;2022-12-07T13:35:42;96759.94;;;5.13;97.13
44131;BME280;29792;48.726;9.248;2022-12-07T13:38:34;96756.78;;;5.10;96.53
44131;BME280;29792;48.726;9.248;2022-12-07T13:41:21;96756.88;;;5.08;96.79
44131;BME280;29792;48.726;9.248;2022-12-07T13:43:52;96755.06;;;5.10;96.90
44131;BME280;29792;48.726;9.248;2022-12-07T13:46:29;96754.13;;;5.11;96.35
44131;BME280;29792;48.726;9.248;2022-12-07T13:48:56;96754.84;;;5.13;96.42
44131;BME280;29792;48.726;9.248;2022-12-07T13:51:24;96753.94;;;5.14;97.14
44131;BME280;29792;48.726;9.248;2022-12-07T13:53:53;96757.31;;;5.15;96.96
44131;BME280;29792;48.726;9.248;2022-12-07T13:56:21;96755.50;;;5.17;96.87
44131;BME280;29792;48.726;9.248;2022-12-07T13:58:47;96749.50;;;5.18;96.48
44131;BME280;29792;48.726;9.248;2022-12-07T14:01:12;96746.84;;;5.19;97.11
44131;BME280;29792;48.726;9.248;2022-12-07T14:03:38;96755.19;;;5.21;96.32
44131;BME280;29792;48.726;9.248;2022-12-07T14:06:06;96752.75;;;5.20;96.53
44131;BME280;29792;48.726;9.248;2022-12-07T14:08:32;96747.78;;;5.18;95.70
44131;BME280;29792;48.726;9.248;2022-12-07T14:10:57;96750.31;;;5.18;96.09
44131;BME280;29792;48.726;9.248;2022-12-07T14:13:44;96747.88;;;5.17;95.98
44131;BME280;29792;48.726;9.248;2022-12-07T14:18:51;96747.66;;;5.20;94.86
44131;BME280;29792;48.726;9.248;2022-12-07T14:21:19;96749.38;;;5.19;94.51
44131;BME280;29792;48.726;9.248;2022-12-07T14:24:08;96749.50;;;5.18;95.22
44131;BME280;29792;48.726;9.248;2022-12-07T14:26:34;96747.66;;;5.20;95.03
44131;BME280;29792;48.726;9.248;2022-12-07T14:31:50;96739.13;;;5.21;94.42
44131;BME280;29792;48.726;9.248;2022-12-07T14:34:16;96742.50;;;5.21;94.72
44131;BME280;29792;48.726;9.248;2022-12-07T14:36:41;96746.06;;;5.19;93.25
44131;BME280;29792;48.726;9.248;2022-12-07T14:39:07;96741.16;;;5.16;94.15